To NAV CANADA Home Page Login to a new session Search on AWWS site Feedback and Comments Disclaimer Vers la page française équivalente Tips FAQ What's new on the site To the Forecasts and Observations / NOTAM section To "File a Flight Plan" website Publications and other links Update of the User's profile FIC Telephone Numbers My Weather Data Folder Route Weather Data Regional Weather Data Local Weather Data To the Forecasts and Observations / NOTAM section
Request Generated 08/01/2015 at 05:44:07 UTC . Weather information available at that time is displayed.

METAR/TAF

EARLTON/EARLTON (TIMISKAMING REGIONAL)/ON    (show WxCam)

METAR CYXR 010500Z AUTO 26005KT 9SM OVC200 14/13 A2969 RMK SLP056
DENSITY ALT 1100FT=
METAR CYXR 010400Z AUTO 26003KT 9SM BKN180 BKN200 15/14 A2969 RMK
SLP056 DENSITY ALT 1200FT=
METAR CYXR 010300Z AUTO 25005KT 9SM BKN150 BKN180 15/15 A2969 RMK
SLP057 DENSITY ALT 1200FT=

*** REMARK        : Forecast period has ended; this was the last TAF issued
*** REMARQUE : La période de prévision est échue; ceci était le dernier TAF qui a été émis
TAF AMD CYXR 312044Z 3120/3124 35008KT P6SM SCT050 BKN100 TEMPO
3120/3123 VRB15G25KT 3SM TSRA BR BKN040CB
FM312300 26008KT P6SM BKN050 TEMPO 3123/3124 P6SM -SHRA PROB30
3123/3124 3SM TSRA BR BKN030CB
RMK FCST BASED ON AUTO OBS. NXT FCST WILL BE ISSUED AT 011145Z=
Your time UTC time
Weather data provided by Environment Canada and NAV CANADA